Time;durP1;ratioP1;P1;durP2;ratioP2;P2;SDS_P1;SDS_P2;PMS_P1;PMS_P2;Temp;Humidity;BMP_temperature;BMP_pressure;BME280_temperature;BME280_humidity;BME280_pressure;Samples;Min_cycle;Max_cycle;Signal;HPM_P1;HPM_P2
2021/07/04 00:00:36;;;;;;;38.67;30.42;;;;;;;;;;5042198;28;20044;-67
2021/07/04 00:03:04;;;;;;;44.75;32.88;;;;;;;;;;5040227;28;20056;-67
2021/07/04 00:05:36;;;;;;;47.80;35.30;;;;;;;;;;5039617;28;20049;-67
2021/07/04 00:08:03;;;;;;;51.85;35.47;;;;;;;;;;5042183;28;20488;-67
2021/07/04 00:10:31;;;;;;;47.83;34.92;;;;;;;;;;5045685;28;20377;-67
2021/07/04 00:12:58;;;;;;;50.67;36.15;;;;;;;;;;5046167;28;20484;-67
2021/07/04 00:15:26;;;;;;;55.60;36.00;;;;;;;;;;5038120;28;20060;-67
2021/07/04 00:17:52;;;;;;;52.28;36.60;;;;;;;;;;5040140;28;20053;-67
2021/07/04 00:20:19;;;;;;;54.70;35.72;;;;;;;;;;5048038;28;20503;-67
2021/07/04 00:22:46;;;;;;;45.35;34.63;;;;;;;;;;5044416;28;20116;-67
2021/07/04 00:25:14;;;;;;;45.88;33.60;;;;;;;;;;5042393;28;20450;-67
2021/07/04 00:27:40;;;;;;;46.03;33.03;;;;;;;;;;5039018;28;20045;-67
2021/07/04 00:30:08;;;;;;;47.67;33.55;;;;;;;;;;5044492;28;20103;-67
2021/07/04 00:32:34;;;;;;;40.67;31.83;;;;;;;;;;5043545;28;20033;-67
2021/07/04 00:35:00;;;;;;;46.85;32.55;;;;;;;;;;5035921;28;20099;-67
2021/07/04 00:37:26;;;;;;;40.08;31.30;;;;;;;;;;5042972;28;20041;-67
2021/07/04 00:39:53;;;;;;;47.17;33.78;;;;;;;;;;5043486;28;20151;-67
2021/07/04 00:42:19;;;;;;;49.00;34.83;;;;;;;;;;5043017;28;20041;-67
2021/07/04 00:44:45;;;;;;;52.15;36.10;;;;;;;;;;5039416;28;20045;-67
2021/07/04 00:47:12;;;;;;;57.53;36.25;;;;;;;;;;5039673;28;20039;-67
2021/07/04 00:49:38;;;;;;;53.72;36.63;;;;;;;;;;5041358;28;20514;-67
2021/07/04 00:52:05;;;;;;;52.35;35.47;;;;;;;;;;5047494;28;20041;-67
2021/07/04 00:54:32;;;;;;;51.90;34.75;;;;;;;;;;5046936;28;20135;-67
2021/07/04 00:56:58;;;;;;;51.38;37.13;;;;;;;;;;5042454;28;20049;-67
2021/07/04 00:59:25;;;;;;;56.55;35.50;;;;;;;;;;5039797;28;20041;-67
2021/07/04 01:01:52;;;;;;;50.20;36.38;;;;;;;;;;5042322;28;20053;-67
2021/07/04 01:04:19;;;;;;;46.72;33.78;;;;;;;;;;5046833;28;20132;-67
2021/07/04 01:06:45;;;;;;;51.75;34.38;;;;;;;;;;5043303;28;20116;-67
2021/07/04 01:09:11;;;;;;;51.20;35.13;;;;;;;;;;5038595;28;20053;-67
2021/07/04 01:11:38;;;;;;;62.47;38.63;;;;;;;;;;5043906;28;20392;-67
2021/07/04 01:14:04;;;;;;;49.03;34.92;;;;;;;;;;5045987;28;20433;-67
2021/07/04 01:16:31;;;;;;;55.22;36.05;;;;;;;;;;5041651;28;20069;-67
2021/07/04 01:18:58;;;;;;;53.75;35.95;;;;;;;;;;5039581;28;20457;-67
2021/07/04 01:21:24;;;;;;;54.03;37.22;;;;;;;;;;5039604;28;20115;-67
2021/07/04 01:23:51;;;;;;;52.33;35.90;;;;;;;;;;5044828;28;20068;-67
2021/07/04 01:26:17;;;;;;;48.40;34.88;;;;;;;;;;5045992;28;20100;-67
2021/07/04 01:28:43;;;;;;;56.20;37.75;;;;;;;;;;5039945;28;20083;-67
2021/07/04 01:31:10;;;;;;;50.05;34.22;;;;;;;;;;5043971;28;20092;-67
2021/07/04 01:33:36;;;;;;;51.40;36.97;;;;;;;;;;5043897;28;20206;-67
2021/07/04 01:36:03;;;;;;;57.42;36.75;;;;;;;;;;5043649;28;20049;-67
2021/07/04 01:38:29;;;;;;;52.95;34.85;;;;;;;;;;5039817;28;20100;-67
2021/07/04 01:40:55;;;;;;;48.90;33.38;;;;;;;;;;5044092;28;20072;-67
2021/07/04 01:43:21;;;;;;;52.30;34.33;;;;;;;;;;5046914;28;20037;-67
2021/07/04 01:45:48;;;;;;;47.35;34.05;;;;;;;;;;5039778;28;20099;-67
2021/07/04 01:48:14;;;;;;;44.10;32.53;;;;;;;;;;5039271;28;20113;-67
2021/07/04 01:50:43;;;;;;;49.92;34.70;;;;;;;;;;5047449;28;20120;-67
2021/07/04 01:53:09;;;;;;;63.88;37.22;;;;;;;;;;5061412;28;20455;-67
2021/07/04 01:55:36;;;;;;;55.25;36.03;;;;;;;;;;5060764;28;20075;-67
2021/07/04 01:58:05;;;;;;;56.55;36.17;;;;;;;;;;5061231;28;20117;-67
2021/07/04 02:00:33;;;;;;;66.13;39.83;;;;;;;;;;5061513;28;20040;-67
2021/07/04 02:03:00;;;;;;;59.65;38.08;;;;;;;;;;5065247;28;20047;-67
2021/07/04 02:05:27;;;;;;;63.63;40.20;;;;;;;;;;5056602;28;20055;-67
2021/07/04 02:07:54;;;;;;;63.88;41.20;;;;;;;;;;5062081;28;20062;-67
2021/07/04 02:10:23;;;;;;;58.08;37.53;;;;;;;;;;5060575;28;20049;-67
2021/07/04 02:12:49;;;;;;;59.85;38.53;;;;;;;;;;5061474;28;20045;-67
2021/07/04 02:15:18;;;;;;;62.83;39.35;;;;;;;;;;5062460;28;20044;-67
2021/07/04 02:17:44;;;;;;;60.53;39.08;;;;;;;;;;5060398;28;20121;-67
2021/07/04 02:20:14;;;;;;;56.70;37.35;;;;;;;;;;5060107;28;22026;-66
2021/07/04 02:22:40;;;;;;;56.75;37.25;;;;;;;;;;5044765;28;20041;-67
2021/07/04 02:25:07;;;;;;;56.50;37.80;;;;;;;;;;5060686;28;20056;-67
2021/07/04 02:27:33;;;;;;;51.17;36.92;;;;;;;;;;5060227;28;20492;-67
2021/07/04 02:30:00;;;;;;;68.97;39.92;;;;;;;;;;5060439;28;20074;-67
2021/07/04 02:32:26;;;;;;;54.42;34.83;;;;;;;;;;5057293;28;20105;-67
2021/07/04 02:34:52;;;;;;;56.58;34.40;;;;;;;;;;5057246;28;20041;-67
2021/07/04 02:37:19;;;;;;;48.95;33.70;;;;;;;;;;5062685;28;20055;-67
2021/07/04 02:39:46;;;;;;;62.70;35.60;;;;;;;;;;5061299;28;20543;-67
2021/07/04 02:42:12;;;;;;;50.30;33.97;;;;;;;;;;5060855;28;20029;-67
2021/07/04 02:44:38;;;;;;;63.13;38.13;;;;;;;;;;5061195;28;20057;-67
2021/07/04 02:47:04;;;;;;;51.58;34.17;;;;;;;;;;5060102;28;20045;-67
2021/07/04 02:49:31;;;;;;;61.55;37.72;;;;;;;;;;5061971;28;20048;-67
2021/07/04 02:51:57;;;;;;;54.15;35.40;;;;;;;;;;5061928;28;20048;-67
2021/07/04 02:54:23;;;;;;;50.50;33.00;;;;;;;;;;5061848;28;20044;-67
2021/07/04 02:56:49;;;;;;;55.03;33.80;;;;;;;;;;5060204;28;20040;-67
2021/07/04 02:59:15;;;;;;;50.67;35.30;;;;;;;;;;5062278;28;20135;-67
2021/07/04 03:01:42;;;;;;;50.83;34.85;;;;;;;;;;5061302;28;20408;-67
2021/07/04 03:04:08;;;;;;;51.22;33.65;;;;;;;;;;5060993;28;20048;-67
2021/07/04 03:06:35;;;;;;;43.97;30.83;;;;;;;;;;5061264;28;20044;-67
2021/07/04 03:09:02;;;;;;;53.55;34.33;;;;;;;;;;5061483;28;20056;-67
2021/07/04 03:11:28;;;;;;;44.20;30.00;;;;;;;;;;5061286;28;20134;-67
2021/07/04 03:13:54;;;;;;;42.03;29.50;;;;;;;;;;5058146;28;20102;-67
2021/07/04 03:16:21;;;;;;;48.47;31.10;;;;;;;;;;5063048;28;20116;-67
2021/07/04 03:18:47;;;;;;;46.72;32.22;;;;;;;;;;5061680;28;20103;-67
2021/07/04 03:21:13;;;;;;;42.83;31.55;;;;;;;;;;5061646;28;20113;-67
2021/07/04 03:23:39;;;;;;;54.58;33.42;;;;;;;;;;5059883;28;20111;-67
2021/07/04 03:26:06;;;;;;;49.28;33.17;;;;;;;;;;5061378;28;20054;-67
2021/07/04 03:28:32;;;;;;;57.35;37.58;;;;;;;;;;5063129;28;20041;-67
2021/07/04 03:30:58;;;;;;;55.22;35.63;;;;;;;;;;5056792;28;20072;-67
2021/07/04 03:33:25;;;;;;;52.65;35.72;;;;;;;;;;5059814;28;20108;-67
2021/07/04 03:35:51;;;;;;;55.30;35.70;;;;;;;;;;5061221;28;20419;-66
2021/07/04 03:38:17;;;;;;;44.53;33.20;;;;;;;;;;5059646;28;20036;-67
2021/07/04 03:40:43;;;;;;;51.72;35.42;;;;;;;;;;5065268;28;20063;-67
2021/07/04 03:43:10;;;;;;;46.20;32.08;;;;;;;;;;5063763;28;20040;-67
2021/07/04 03:45:36;;;;;;;48.45;31.33;;;;;;;;;;5062328;28;20045;-67
2021/07/04 03:48:02;;;;;;;47.50;31.65;;;;;;;;;;5062537;28;20092;-67
2021/07/04 03:50:29;;;;;;;59.33;35.92;;;;;;;;;;5058136;28;20036;-67
2021/07/04 03:52:56;;;;;;;52.53;34.17;;;;;;;;;;5059174;28;20496;-67
2021/07/04 03:55:23;;;;;;;48.08;32.05;;;;;;;;;;5062265;28;20057;-67
2021/07/04 03:57:50;;;;;;;52.70;34.67;;;;;;;;;;5059583;28;20443;-67
2021/07/04 04:00:16;;;;;;;48.20;33.40;;;;;;;;;;5059267;28;20475;-67
2021/07/04 04:02:43;;;;;;;48.42;32.60;;;;;;;;;;5057412;28;20438;-67
2021/07/04 04:05:09;;;;;;;47.53;32.17;;;;;;;;;;5060334;28;20051;-67
2021/07/04 04:07:38;;;;;;;51.85;33.55;;;;;;;;;;5063218;28;20399;-67
2021/07/04 04:10:06;;;;;;;45.10;32.55;;;;;;;;;;5068765;28;20045;-67
2021/07/04 04:12:33;;;;;;;48.38;31.58;;;;;;;;;;5064760;28;20041;-67
2021/07/04 04:15:00;;;;;;;54.28;35.20;;;;;;;;;;5064662;28;20807;-67
2021/07/04 04:17:27;;;;;;;56.80;35.78;;;;;;;;;;5050534;28;20510;-67
2021/07/04 04:19:54;;;;;;;56.30;35.80;;;;;;;;;;5069730;28;20041;-67
2021/07/04 04:22:20;;;;;;;57.97;35.33;;;;;;;;;;5062796;28;20134;-67
2021/07/04 04:24:47;;;;;;;49.45;33.40;;;;;;;;;;5062777;28;20097;-67
2021/07/04 04:27:13;;;;;;;51.78;34.25;;;;;;;;;;5064263;28;20511;-67
2021/07/04 04:29:40;;;;;;;48.28;33.03;;;;;;;;;;5061575;28;20037;-67
2021/07/04 04:32:06;;;;;;;55.13;34.90;;;;;;;;;;5057775;28;20041;-67
2021/07/04 04:34:33;;;;;;;47.50;32.88;;;;;;;;;;5059964;28;20076;-67
2021/07/04 04:36:59;;;;;;;47.33;33.08;;;;;;;;;;5067590;28;20041;-67
2021/07/04 04:39:26;;;;;;;48.55;32.88;;;;;;;;;;5063166;28;20374;-67
2021/07/04 04:41:52;;;;;;;48.97;32.22;;;;;;;;;;5057546;28;20036;-67
2021/07/04 04:44:19;;;;;;;48.38;31.77;;;;;;;;;;5064859;28;20051;-67
2021/07/04 04:46:45;;;;;;;44.40;31.60;;;;;;;;;;5061253;28;20037;-67
2021/07/04 04:49:11;;;;;;;48.67;32.75;;;;;;;;;;5059984;28;20041;-67
2021/07/04 04:51:38;;;;;;;47.45;31.73;;;;;;;;;;5058485;28;20100;-67
2021/07/04 04:54:05;;;;;;;49.03;33.58;;;;;;;;;;5062370;28;20127;-67
2021/07/04 04:56:31;;;;;;;48.10;32.70;;;;;;;;;;5058583;28;20045;-67
2021/07/04 04:58:57;;;;;;;47.20;32.10;;;;;;;;;;5061413;28;20036;-67
2021/07/04 05:01:26;;;;;;;54.72;34.05;;;;;;;;;;5058090;28;20044;-67
2021/07/04 05:03:52;;;;;;;51.42;33.97;;;;;;;;;;5063768;28;20032;-67
2021/07/04 05:06:19;;;;;;;47.22;32.45;;;;;;;;;;5066064;28;20420;-67
2021/07/04 05:08:45;;;;;;;51.70;34.83;;;;;;;;;;5063038;28;20071;-67
2021/07/04 05:11:12;;;;;;;50.53;33.55;;;;;;;;;;5065298;28;20036;-67
2021/07/04 05:13:38;;;;;;;55.20;35.28;;;;;;;;;;5063917;28;20461;-67
2021/07/04 05:16:05;;;;;;;62.20;37.33;;;;;;;;;;5062753;28;20117;-67
2021/07/04 05:18:32;;;;;;;54.30;36.22;;;;;;;;;;5068363;28;20151;-67
2021/07/04 05:20:58;;;;;;;58.10;35.95;;;;;;;;;;5067558;28;20041;-67
2021/07/04 05:23:24;;;;;;;62.60;38.50;;;;;;;;;;5059356;28;20132;-67
2021/07/04 05:25:53;;;;;;;69.40;40.78;;;;;;;;;;5060382;28;20055;-67
2021/07/04 05:28:20;;;;;;;60.30;37.03;;;;;;;;;;5061218;28;20113;-67
2021/07/04 05:30:46;;;;;;;58.15;37.88;;;;;;;;;;5061115;28;20110;-67
2021/07/04 05:33:13;;;;;;;63.00;39.60;;;;;;;;;;5063515;28;20037;-67
2021/07/04 05:35:39;;;;;;;73.32;40.35;;;;;;;;;;5063781;28;20540;-67
2021/07/04 05:38:10;;;;;;;69.30;41.92;;;;;;;;;;5065678;28;20044;-67
2021/07/04 05:40:37;;;;;;;67.93;42.13;;;;;;;;;;5061854;28;20037;-67
2021/07/04 05:43:03;;;;;;;70.10;43.60;;;;;;;;;;5057801;28;20101;-66
2021/07/04 05:45:29;;;;;;;78.30;45.40;;;;;;;;;;5059869;28;20119;-67
2021/07/04 05:47:56;;;;;;;70.00;41.78;;;;;;;;;;5065570;28;20048;-67
2021/07/04 05:50:22;;;;;;;71.78;43.60;;;;;;;;;;5064021;28;20127;-67
2021/07/04 05:52:49;;;;;;;75.10;44.92;;;;;;;;;;5065337;28;20064;-67
2021/07/04 05:55:15;;;;;;;73.65;42.92;;;;;;;;;;5052585;28;20040;-67
2021/07/04 05:57:41;;;;;;;74.35;43.13;;;;;;;;;;5061693;28;20048;-67
2021/07/04 06:00:09;;;;;;;65.63;40.20;;;;;;;;;;5068827;28;20055;-67
2021/07/04 06:02:35;;;;;;;65.40;39.42;;;;;;;;;;5044474;28;20063;-67
2021/07/04 06:05:01;;;;;;;60.70;37.05;;;;;;;;;;5063411;28;20447;-67
2021/07/04 06:07:27;;;;;;;63.70;38.45;;;;;;;;;;5059145;28;20095;-67
2021/07/04 06:09:54;;;;;;;55.92;35.90;;;;;;;;;;5063371;28;20139;-67
2021/07/04 06:12:20;;;;;;;55.20;36.88;;;;;;;;;;5065055;28;20040;-68
2021/07/04 06:14:47;;;;;;;61.80;36.92;;;;;;;;;;5065387;28;20037;-66
2021/07/04 06:17:13;;;;;;;57.95;37.70;;;;;;;;;;5070740;28;20043;-67
2021/07/04 06:19:39;;;;;;;51.00;34.83;;;;;;;;;;5066232;28;20072;-67
2021/07/04 06:22:05;;;;;;;55.70;35.80;;;;;;;;;;5070533;28;20055;-67
2021/07/04 06:24:32;;;;;;;57.70;38.13;;;;;;;;;;5069162;28;20486;-67
2021/07/04 06:26:58;;;;;;;58.17;37.00;;;;;;;;;;5062534;28;20121;-67
2021/07/04 06:29:24;;;;;;;54.17;36.25;;;;;;;;;;5070577;28;20101;-67
2021/07/04 06:31:50;;;;;;;58.05;38.40;;;;;;;;;;5061977;28;20072;-67
2021/07/04 06:34:17;;;;;;;51.78;35.92;;;;;;;;;;5050771;28;20101;-67
2021/07/04 06:36:43;;;;;;;55.45;38.58;;;;;;;;;;5058954;28;20048;-67
2021/07/04 06:39:09;;;;;;;50.08;36.47;;;;;;;;;;5067600;28;20040;-67
2021/07/04 06:41:35;;;;;;;51.80;36.17;;;;;;;;;;5064441;28;20059;-67
2021/07/04 06:44:02;;;;;;;53.13;36.40;;;;;;;;;;5067772;28;20125;-67
2021/07/04 06:46:29;;;;;;;55.72;36.20;;;;;;;;;;5065960;28;20156;-67
2021/07/04 06:48:55;;;;;;;54.45;36.03;;;;;;;;;;5065996;28;20052;-67
2021/07/04 06:51:21;;;;;;;48.45;35.00;;;;;;;;;;5063442;28;20056;-67
2021/07/04 06:53:48;;;;;;;50.17;35.97;;;;;;;;;;5043904;28;20056;-67
2021/07/04 06:56:14;;;;;;;53.88;38.15;;;;;;;;;;5066567;28;20064;-67
2021/07/04 06:58:40;;;;;;;50.15;38.92;;;;;;;;;;5068940;28;20043;-67
2021/07/04 07:01:08;;;;;;;46.40;36.38;;;;;;;;;;5064510;28;20052;-67
2021/07/04 07:03:35;;;;;;;47.15;36.70;;;;;;;;;;5069253;28;20079;-67
2021/07/04 07:06:01;;;;;;;45.22;35.65;;;;;;;;;;5069238;28;20059;-67
2021/07/04 07:08:27;;;;;;;44.28;36.20;;;;;;;;;;5068221;28;20047;-67
2021/07/04 07:10:54;;;;;;;43.78;35.38;;;;;;;;;;5069094;28;20032;-67
2021/07/04 07:13:21;;;;;;;47.88;33.40;;;;;;;;;;5068982;28;20049;-67
2021/07/04 07:15:47;;;;;;;47.92;35.22;;;;;;;;;;5067344;28;20090;-68
2021/07/04 07:18:14;;;;;;;44.97;33.53;;;;;;;;;;5069011;28;20060;-68
2021/07/04 07:20:40;;;;;;;43.40;33.13;;;;;;;;;;5069143;28;20143;-67
2021/07/04 07:23:07;;;;;;;40.83;33.65;;;;;;;;;;5067986;28;20095;-68
2021/07/04 07:25:33;;;;;;;44.35;34.28;;;;;;;;;;5068317;28;20080;-67
2021/07/04 07:28:00;;;;;;;39.80;31.42;;;;;;;;;;5068724;28;20492;-67
2021/07/04 07:30:27;;;;;;;39.53;31.52;;;;;;;;;;5067729;28;20093;-67
2021/07/04 07:32:53;;;;;;;38.30;30.52;;;;;;;;;;5068309;28;20066;-67
2021/07/04 07:35:20;;;;;;;42.13;32.72;;;;;;;;;;5067806;28;20052;-67
2021/07/04 07:37:48;;;;;;;45.25;33.70;;;;;;;;;;5066814;28;20503;-67
2021/07/04 07:40:15;;;;;;;38.97;31.35;;;;;;;;;;5067376;28;20124;-67
2021/07/04 07:42:41;;;;;;;35.75;29.55;;;;;;;;;;5065960;28;20059;-68
2021/07/04 07:45:08;;;;;;;40.70;33.85;;;;;;;;;;5070117;28;20036;-67
2021/07/04 07:47:35;;;;;;;38.75;30.90;;;;;;;;;;5071313;28;20048;-67
2021/07/04 07:50:01;;;;;;;40.72;32.08;;;;;;;;;;5071081;28;20370;-67
2021/07/04 07:52:29;;;;;;;40.28;30.85;;;;;;;;;;5070582;28;20085;-67
2021/07/04 07:54:55;;;;;;;37.03;30.73;;;;;;;;;;5071205;28;20540;-67
2021/07/04 07:57:21;;;;;;;34.42;28.05;;;;;;;;;;5069920;28;21022;-67
2021/07/04 07:59:49;;;;;;;37.03;28.48;;;;;;;;;;5071215;28;20040;-68
2021/07/04 08:02:15;;;;;;;33.65;28.02;;;;;;;;;;5070816;28;20044;-67
2021/07/04 08:04:42;;;;;;;34.25;27.80;;;;;;;;;;5070027;28;20036;-67
2021/07/04 08:07:08;;;;;;;33.95;27.63;;;;;;;;;;5070633;28;20037;-67
2021/07/04 08:09:34;;;;;;;38.08;30.23;;;;;;;;;;5070450;28;20112;-67
2021/07/04 08:12:01;;;;;;;35.63;29.35;;;;;;;;;;5069443;28;20495;-67
2021/07/04 08:14:28;;;;;;;34.70;28.25;;;;;;;;;;5070681;28;20049;-67
2021/07/04 08:16:54;;;;;;;31.70;28.33;;;;;;;;;;5070437;28;20037;-67
2021/07/04 08:19:21;;;;;;;34.83;28.30;;;;;;;;;;5069613;28;20036;-67
2021/07/04 08:21:47;;;;;;;34.33;26.42;;;;;;;;;;5070775;28;20036;-67
2021/07/04 08:24:13;;;;;;;30.65;24.98;;;;;;;;;;5068841;28;20120;-67
2021/07/04 08:26:40;;;;;;;33.22;28.05;;;;;;;;;;5069814;28;20059;-67
2021/07/04 08:29:06;;;;;;;35.13;28.38;;;;;;;;;;5070816;28;20060;-67
2021/07/04 08:31:32;;;;;;;36.38;28.42;;;;;;;;;;5070330;28;20086;-67
2021/07/04 08:33:59;;;;;;;30.65;27.10;;;;;;;;;;5069024;28;20147;-67
2021/07/04 08:36:26;;;;;;;33.28;29.27;;;;;;;;;;5068827;28;20411;-67
2021/07/04 08:38:53;;;;;;;33.85;29.20;;;;;;;;;;5068013;28;20088;-67
2021/07/04 08:41:19;;;;;;;31.25;26.58;;;;;;;;;;5070631;28;20082;-67
2021/07/04 08:43:45;;;;;;;27.50;24.52;;;;;;;;;;5070124;28;20091;-67
2021/07/04 08:46:12;;;;;;;29.75;25.67;;;;;;;;;;5069918;28;20040;-67
2021/07/04 08:48:40;;;;;;;36.30;26.77;;;;;;;;;;5070067;28;20044;-67
2021/07/04 08:51:07;;;;;;;29.52;25.08;;;;;;;;;;5051748;28;20051;-67
2021/07/04 08:53:33;;;;;;;31.10;25.48;;;;;;;;;;5069378;28;20048;-67
2021/07/04 08:55:59;;;;;;;32.60;25.63;;;;;;;;;;5068455;28;20392;-67
2021/07/04 08:58:27;;;;;;;31.95;25.48;;;;;;;;;;5069916;28;20115;-67
2021/07/04 09:01:10;;;;;;;32.70;26.55;;;;;;;;;;5069175;28;20072;-68
2021/07/04 09:03:38;;;;;;;29.73;25.05;;;;;;;;;;5069984;28;20129;-67
2021/07/04 09:06:04;;;;;;;32.72;25.55;;;;;;;;;;5051582;28;20048;-67
2021/07/04 09:08:30;;;;;;;27.88;24.17;;;;;;;;;;5067510;28;20150;-67
2021/07/04 09:11:10;;;;;;;25.50;22.52;;;;;;;;;;5069694;28;20051;-67
2021/07/04 09:13:37;;;;;;;26.38;22.90;;;;;;;;;;5051813;28;20048;-67
2021/07/04 09:16:05;;;;;;;25.88;22.05;;;;;;;;;;5068790;28;20132;-67
2021/07/04 09:18:31;;;;;;;27.98;24.90;;;;;;;;;;5069800;28;20036;-68
2021/07/04 09:20:58;;;;;;;25.20;22.13;;;;;;;;;;5069532;28;20048;-67
2021/07/04 09:23:34;;;;;;;23.08;20.58;;;;;;;;;;5068825;28;20052;-67
2021/07/04 09:26:00;;;;;;;25.40;19.95;;;;;;;;;;5069004;28;20049;-67
2021/07/04 09:28:27;;;;;;;22.23;19.80;;;;;;;;;;5068461;28;20583;-68
2021/07/04 09:30:55;;;;;;;24.15;19.80;;;;;;;;;;5068940;28;20037;-68
2021/07/04 09:33:23;;;;;;;23.80;21.17;;;;;;;;;;5069041;28;20056;-67
2021/07/04 09:36:01;;;;;;;25.08;21.17;;;;;;;;;;5068807;28;20044;-67
2021/07/04 09:38:33;;;;;;;24.00;21.50;;;;;;;;;;5069297;28;20045;-67
2021/07/04 09:40:59;;;;;;;22.73;20.27;;;;;;;;;;5068428;28;20040;-68
2021/07/04 09:43:27;;;;;;;22.58;20.13;;;;;;;;;;5068335;28;20096;-67
2021/07/04 09:45:55;;;;;;;26.50;19.85;;;;;;;;;;5051088;28;20392;-67
2021/07/04 09:48:23;;;;;;;22.92;19.10;;;;;;;;;;5068824;28;20123;-67
2021/07/04 09:50:51;;;;;;;19.92;17.40;;;;;;;;;;5068170;28;20563;-67
2021/07/04 09:53:19;;;;;;;20.65;18.13;;;;;;;;;;5068543;28;20052;-67
2021/07/04 09:55:48;;;;;;;21.52;17.27;;;;;;;;;;5068202;28;20130;-67
2021/07/04 09:58:14;;;;;;;21.60;17.08;;;;;;;;;;5067817;28;20045;-68
2021/07/04 10:00:42;;;;;;;19.63;17.17;;;;;;;;;;5068323;28;20112;-68
2021/07/04 10:03:17;;;;;;;19.70;17.42;;;;;;;;;;5068763;28;20072;-68
2021/07/04 10:05:44;;;;;;;18.58;15.95;;;;;;;;;;5067772;28;20040;-68
2021/07/04 10:08:24;;;;;;;19.42;17.33;;;;;;;;;;5065240;28;20109;-68
2021/07/04 10:10:51;;;;;;;17.75;15.30;;;;;;;;;;5067746;28;20044;-68
2021/07/04 10:13:18;;;;;;;19.13;16.98;;;;;;;;;;5068342;28;20040;-67
2021/07/04 10:15:44;;;;;;;20.65;16.88;;;;;;;;;;5068299;28;20113;-67
2021/07/04 10:18:12;;;;;;;23.35;20.13;;;;;;;;;;5048738;28;20076;-67
2021/07/04 10:20:39;;;;;;;24.52;20.60;;;;;;;;;;5067795;28;20036;-67
2021/07/04 10:23:07;;;;;;;21.38;19.02;;;;;;;;;;5068259;28;20063;-68
2021/07/04 10:25:33;;;;;;;21.63;19.27;;;;;;;;;;5067198;28;20044;-67
2021/07/04 10:28:00;;;;;;;24.65;18.42;;;;;;;;;;5068152;28;20092;-68
2021/07/04 10:30:27;;;;;;;29.90;21.10;;;;;;;;;;5067767;28;20049;-68
2021/07/04 10:33:05;;;;;;;23.83;20.85;;;;;;;;;;5047901;28;20050;-68
2021/07/04 10:35:31;;;;;;;22.52;19.20;;;;;;;;;;5031949;28;20529;-68
2021/07/04 10:38:13;;;;;;;22.17;19.38;;;;;;;;;;5068020;28;20480;-67
2021/07/04 10:40:40;;;;;;;33.47;22.83;;;;;;;;;;5067090;28;20471;-67
2021/07/04 10:43:06;;;;;;;28.70;21.77;;;;;;;;;;5066352;28;20048;-67
2021/07/04 10:45:35;;;;;;;32.03;23.88;;;;;;;;;;5063822;28;20052;-67
2021/07/04 10:48:18;;;;;;;35.28;26.80;;;;;;;;;;5067882;28;20049;-67
2021/07/04 10:51:03;;;;;;;27.55;22.45;;;;;;;;;;5067170;28;20139;-67
2021/07/04 10:53:47;;;;;;;22.80;18.95;;;;;;;;;;5066601;28;20056;-68
2021/07/04 10:56:40;;;;;;;20.08;17.10;;;;;;;;;;5065221;28;20052;-68
2021/07/04 10:59:07;;;;;;;;;;;;;;;;;;5064265;28;20045;-68
2021/07/04 11:01:54;;;;;;;19.33;16.15;;;;;;;;;;5061414;28;19920;-68
2021/07/04 11:04:28;;;;;;;17.85;15.30;;;;;;;;;;5065635;28;20093;-67
2021/07/04 11:06:57;;;;;;;17.05;14.60;;;;;;;;;;5063077;28;20049;-67
2021/07/04 11:09:23;;;;;;;15.68;13.63;;;;;;;;;;5064666;28;20075;-67
2021/07/04 11:11:49;;;;;;;18.33;15.60;;;;;;;;;;5066606;28;20040;-67
2021/07/04 11:14:16;;;;;;;19.42;15.07;;;;;;;;;;5065531;28;20048;-67
2021/07/04 11:17:01;;;;;;;17.98;16.08;;;;;;;;;;5065233;28;20100;-67
2021/07/04 11:19:28;;;;;;;15.75;13.90;;;;;;;;;;5070030;28;20044;-67
2021/07/04 11:21:56;;;;;;;18.40;14.25;;;;;;;;;;5059134;28;20078;-67
2021/07/04 11:24:24;;;;;;;19.35;15.50;;;;;;;;;;5072081;28;20496;-67
2021/07/04 11:27:09;;;;;;;27.88;16.25;;;;;;;;;;5071341;28;20392;-67
2021/07/04 11:29:35;;;;;;;18.70;16.15;;;;;;;;;;5070510;28;20048;-67
2021/07/04 11:32:20;;;;;;;26.63;18.33;;;;;;;;;;5071767;28;20032;-67
2021/07/04 11:34:49;;;;;;;22.20;16.95;;;;;;;;;;5068307;28;20056;-67
2021/07/04 11:37:16;;;;;;;30.77;16.52;;;;;;;;;;5071648;28;20049;-67
2021/07/04 11:39:54;;;;;;;17.38;14.95;;;;;;;;;;5071450;28;20176;-67
2021/07/04 11:42:27;;;;;;;27.20;15.55;;;;;;;;;;5070157;28;20054;-67
2021/07/04 11:44:53;;;;;;;14.43;12.90;;;;;;;;;;5071543;28;20435;-67
2021/07/04 11:47:20;;;;;;;16.95;13.43;;;;;;;;;;5071160;28;20056;-68
2021/07/04 11:49:46;;;;;;;15.18;12.80;;;;;;;;;;5052736;28;20045;-67
2021/07/04 11:52:18;;;;;;;12.55;10.82;;;;;;;;;;5070499;28;20057;-68
2021/07/04 11:54:44;;;;;;;11.43;10.07;;;;;;;;;;5071059;28;20044;-67
2021/07/04 11:57:29;;;;;;;11.73;10.15;;;;;;;;;;5070171;28;20048;-67
2021/07/04 11:59:56;;;;;;;11.45;10.23;;;;;;;;;;5070527;28;20036;-68
2021/07/04 12:02:23;;;;;;;13.00;11.20;;;;;;;;;;5071210;28;20056;-67
2021/07/04 12:04:49;;;;;;;10.85;9.70;;;;;;;;;;5070476;28;20098;-68
2021/07/04 12:07:16;;;;;;;13.00;10.02;;;;;;;;;;5071056;28;20504;-68
2021/07/04 12:09:45;;;;;;;10.45;8.85;;;;;;;;;;5070970;28;20052;-68
2021/07/04 12:12:18;;;;;;;10.43;9.02;;;;;;;;;;5070177;28;20150;-68
2021/07/04 12:14:45;;;;;;;10.57;8.30;;;;;;;;;;5070821;28;20119;-68
2021/07/04 12:17:26;;;;;;;10.52;8.93;;;;;;;;;;5070126;28;20051;-68
2021/07/04 12:19:56;;;;;;;10.02;7.85;;;;;;;;;;5070769;28;20044;-68
2021/07/04 12:22:24;;;;;;;7.50;6.70;;;;;;;;;;5068300;28;20218;-68
2021/07/04 12:24:50;;;;;;;8.32;7.13;;;;;;;;;;5067268;28;20075;-68
2021/07/04 12:27:17;;;;;;;9.40;7.97;;;;;;;;;;5070386;28;20135;-67
2021/07/04 12:30:00;;;;;;;13.45;12.02;;;;;;;;;;5070240;28;20423;-68
2021/07/04 12:32:27;;;;;;;15.60;13.13;;;;;;;;;;5068732;28;20044;-68
2021/07/04 12:34:53;;;;;;;17.15;12.48;;;;;;;;;;5070142;28;20036;-67
2021/07/04 12:37:20;;;;;;;17.27;13.85;;;;;;;;;;5070031;28;20043;-67
2021/07/04 12:39:47;;;;;;;14.98;13.27;;;;;;;;;;5069093;28;20484;-68
2021/07/04 12:42:23;;;;;;;17.10;14.77;;;;;;;;;;5069731;28;20079;-68
2021/07/04 12:44:59;;;;;;;18.67;13.73;;;;;;;;;;5069819;28;20044;-67
2021/07/04 12:47:26;;;;;;;16.42;13.20;;;;;;;;;;5068884;28;20053;-67
2021/07/04 12:50:00;;;;;;;14.90;12.75;;;;;;;;;;5069531;28;20044;-67
2021/07/04 12:52:27;;;;;;;19.05;16.15;;;;;;;;;;5069337;28;20104;-67
2021/07/04 12:54:54;;;;;;;17.35;14.98;;;;;;;;;;5070464;28;20044;-67
2021/07/04 12:57:32;;;;;;;17.48;15.25;;;;;;;;;;5070273;28;20048;-67
2021/07/04 13:00:10;;;;;;;19.27;14.48;;;;;;;;;;5069606;28;20468;-67
2021/07/04 13:02:41;;;;;;;84.28;27.38;;;;;;;;;;5070462;28;20100;-67
2021/07/04 13:05:08;;;;;;;374.98;70.72;;;;;;;;;;5070082;28;20044;-67
2021/07/04 13:07:42;;;;;;;56.47;21.58;;;;;;;;;;5068832;28;20032;-67
2021/07/04 13:10:08;;;;;;;99.40;26.70;;;;;;;;;;5069980;28;20503;-67
2021/07/04 13:12:36;;;;;;;49.63;21.98;;;;;;;;;;5059570;28;20041;-67
2021/07/04 13:15:04;;;;;;;49.30;20.23;;;;;;;;;;5069651;28;20048;-67
2021/07/04 13:17:32;;;;;;;30.08;16.70;;;;;;;;;;5069630;28;20060;-67
2021/07/04 13:20:00;;;;;;;59.65;21.83;;;;;;;;;;5069384;28;20056;-67
2021/07/04 13:22:28;;;;;;;36.72;19.58;;;;;;;;;;5068868;28;20106;-67
2021/07/04 13:24:57;;;;;;;39.58;20.92;;;;;;;;;;5066824;28;20044;-67
2021/07/04 13:27:26;;;;;;;20.45;16.50;;;;;;;;;;5068359;28;20036;-67
2021/07/04 13:29:54;;;;;;;140.13;35.25;;;;;;;;;;5068838;28;20174;-67
2021/07/04 13:32:22;;;;;;;21.02;16.63;;;;;;;;;;5068741;28;20051;-67
2021/07/04 13:35:06;;;;;;;197.68;41.20;;;;;;;;;;5068959;28;20460;-67
2021/07/04 13:37:33;;;;;;;19.33;16.52;;;;;;;;;;5068375;28;20040;-67
2021/07/04 13:40:01;;;;;;;17.58;15.25;;;;;;;;;;5069150;28;20047;-67
2021/07/04 13:42:29;;;;;;;18.90;15.57;;;;;;;;;;5065130;28;20059;-67
2021/07/04 13:44:56;;;;;;;41.30;19.52;;;;;;;;;;5068991;28;20041;-67
2021/07/04 13:47:23;;;;;;;34.38;18.65;;;;;;;;;;5068696;28;20076;-67
2021/07/04 13:49:49;;;;;;;21.40;17.15;;;;;;;;;;5068261;28;20052;-67
2021/07/04 13:52:15;;;;;;;18.35;16.25;;;;;;;;;;5060892;28;20052;-67
2021/07/04 13:54:42;;;;;;;44.75;20.38;;;;;;;;;;5049106;28;20116;-67
2021/07/04 13:57:09;;;;;;;25.73;17.60;;;;;;;;;;5051105;28;20116;-67
2021/07/04 13:59:35;;;;;;;24.27;17.67;;;;;;;;;;5048738;28;20091;-67
2021/07/04 14:02:02;;;;;;;17.55;14.93;;;;;;;;;;5052302;28;20041;-67
2021/07/04 14:04:28;;;;;;;21.50;16.00;;;;;;;;;;5047715;28;20424;-67
2021/07/04 14:06:54;;;;;;;24.33;15.88;;;;;;;;;;5049143;28;20045;-67
2021/07/04 14:09:21;;;;;;;29.35;16.33;;;;;;;;;;5048973;28;20049;-67
2021/07/04 14:11:48;;;;;;;19.85;16.52;;;;;;;;;;5048008;28;20044;-67
2021/07/04 14:14:15;;;;;;;25.00;16.42;;;;;;;;;;5046136;28;20507;-67
2021/07/04 14:16:43;;;;;;;16.30;14.68;;;;;;;;;;5048191;28;20107;-67
2021/07/04 14:19:10;;;;;;;21.40;14.27;;;;;;;;;;5050074;28;20068;-67
2021/07/04 14:21:37;;;;;;;17.63;14.32;;;;;;;;;;5046740;28;20049;-67